sensor_id;sensor_type;location;lat;lon;timestamp;pressure;altitude;pressure_sealevel;temperature;humidity
13068;BME280;6600;51.362;6.686;2023-06-24T00:01:20;101976.06;;;25.00;71.66
13068;BME280;6600;51.362;6.686;2023-06-24T00:03:47;101968.44;;;24.92;72.33
13068;BME280;6600;51.362;6.686;2023-06-24T00:06:13;101973.09;;;24.91;72.12
13068;BME280;6600;51.362;6.686;2023-06-24T00:08:44;101972.81;;;24.93;72.71
13068;BME280;6600;51.362;6.686;2023-06-24T00:11:10;101982.16;;;24.87;72.59
13068;BME280;6600;51.362;6.686;2023-06-24T00:13:35;101976.69;;;24.77;72.93
13068;BME280;6600;51.362;6.686;2023-06-24T00:16:01;101981.91;;;24.73;72.90
13068;BME280;6600;51.362;6.686;2023-06-24T00:18:26;101986.28;;;24.79;72.39
13068;BME280;6600;51.362;6.686;2023-06-24T00:20:55;101977.78;;;24.81;72.52
13068;BME280;6600;51.362;6.686;2023-06-24T00:23:22;101992.88;;;24.78;72.63
13068;BME280;6600;51.362;6.686;2023-06-24T00:25:50;101983.81;;;24.73;72.54
13068;BME280;6600;51.362;6.686;2023-06-24T00:28:15;101979.22;;;24.58;73.31
13068;BME280;6600;51.362;6.686;2023-06-24T00:30:41;101977.31;;;24.53;73.22
13068;BME280;6600;51.362;6.686;2023-06-24T00:33:06;101971.28;;;24.51;73.47
13068;BME280;6600;51.362;6.686;2023-06-24T00:35:34;101973.50;;;24.49;73.47
13068;BME280;6600;51.362;6.686;2023-06-24T00:37:59;101968.03;;;24.44;73.27
13068;BME280;6600;51.362;6.686;2023-06-24T00:40:25;101964.47;;;24.39;73.87
13068;BME280;6600;51.362;6.686;2023-06-24T00:42:50;101970.78;;;24.39;73.78
13068;BME280;6600;51.362;6.686;2023-06-24T00:45:16;101971.59;;;24.40;73.72
13068;BME280;6600;51.362;6.686;2023-06-24T00:47:43;101971.88;;;24.38;73.95
13068;BME280;6600;51.362;6.686;2023-06-24T00:50:09;101977.34;;;24.43;74.10
13068;BME280;6600;51.362;6.686;2023-06-24T00:52:37;101972.44;;;24.40;73.54
13068;BME280;6600;51.362;6.686;2023-06-24T00:55:07;101972.44;;;24.40;73.13
13068;BME280;6600;51.362;6.686;2023-06-24T00:57:33;101966.13;;;24.35;73.18
13068;BME280;6600;51.362;6.686;2023-06-24T00:59:59;101968.84;;;24.45;72.85
13068;BME280;6600;51.362;6.686;2023-06-24T01:02:25;101970.78;;;24.39;72.51
13068;BME280;6600;51.362;6.686;2023-06-24T01:04:53;101969.16;;;24.33;72.26
13068;BME280;6600;51.362;6.686;2023-06-24T01:07:18;101967.22;;;24.39;71.96
13068;BME280;6600;51.362;6.686;2023-06-24T01:09:44;101978.19;;;24.44;71.43
13068;BME280;6600;51.362;6.686;2023-06-24T01:12:10;101974.03;;;24.41;71.04
13068;BME280;6600;51.362;6.686;2023-06-24T01:14:36;101969.09;;;24.48;71.20
13068;BME280;6600;51.362;6.686;2023-06-24T01:17:20;101963.59;;;24.58;70.77
13068;BME280;6600;51.362;6.686;2023-06-24T01:19:54;101963.31;;;24.65;70.38
13068;BME280;6600;51.362;6.686;2023-06-24T01:28:14;101958.09;;;24.63;70.08
13068;BME280;6600;51.362;6.686;2023-06-24T01:33:22;101960.63;;;24.50;70.90
13068;BME280;6600;51.362;6.686;2023-06-24T01:35:50;101956.00;;;24.40;71.04
13068;BME280;6600;51.362;6.686;2023-06-24T01:38:29;101959.22;;;24.52;70.69
13068;BME280;6600;51.362;6.686;2023-06-24T01:40:57;101964.47;;;24.39;70.75
13068;BME280;6600;51.362;6.686;2023-06-24T01:43:24;101961.50;;;24.30;70.75
13068;BME280;6600;51.362;6.686;2023-06-24T01:45:52;101956.53;;;24.37;71.14
13068;BME280;6600;51.362;6.686;2023-06-24T01:48:25;101954.59;;;24.43;70.77
13068;BME280;6600;51.362;6.686;2023-06-24T01:50:59;101953.78;;;24.47;70.52
13068;BME280;6600;51.362;6.686;2023-06-24T01:53:27;101948.28;;;24.52;70.75
13068;BME280;6600;51.362;6.686;2023-06-24T01:55:54;101945.06;;;24.30;71.39
13068;BME280;6600;51.362;6.686;2023-06-24T01:58:22;101940.66;;;24.24;71.60
13068;BME280;6600;51.362;6.686;2023-06-24T02:00:48;101936.84;;;24.25;71.86
13068;BME280;6600;51.362;6.686;2023-06-24T02:03:15;101937.38;;;24.22;71.55
13068;BME280;6600;51.362;6.686;2023-06-24T02:05:42;101936.28;;;24.28;71.82
13068;BME280;6600;51.362;6.686;2023-06-24T02:08:10;101930.25;;;24.21;72.26
13068;BME280;6600;51.362;6.686;2023-06-24T02:10:39;101931.34;;;24.25;72.81
13068;BME280;6600;51.362;6.686;2023-06-24T02:13:07;101934.09;;;24.25;73.01
13068;BME280;6600;51.362;6.686;2023-06-24T02:15:35;101938.47;;;24.26;73.26
13068;BME280;6600;51.362;6.686;2023-06-24T02:18:04;101931.34;;;24.25;72.86
13068;BME280;6600;51.362;6.686;2023-06-24T02:20:31;101942.34;;;24.15;73.68
13068;BME280;6600;51.362;6.686;2023-06-24T02:22:57;101938.50;;;24.16;73.60
13068;BME280;6600;51.362;6.686;2023-06-24T02:25:25;101943.97;;;24.16;73.68
13068;BME280;6600;51.362;6.686;2023-06-24T02:27:52;101944.53;;;24.03;73.97
13068;BME280;6600;51.362;6.686;2023-06-24T02:30:19;101942.03;;;24.11;73.83
13068;BME280;6600;51.362;6.686;2023-06-24T02:32:44;101941.50;;;24.04;73.36
13068;BME280;6600;51.362;6.686;2023-06-24T02:35:09;101937.66;;;24.05;73.65
13068;BME280;6600;51.362;6.686;2023-06-24T02:37:35;101931.91;;;24.12;73.27
13068;BME280;6600;51.362;6.686;2023-06-24T02:40:01;101939.06;;;24.13;73.03
13068;BME280;6600;51.362;6.686;2023-06-24T02:42:26;101939.03;;;24.03;73.48
13068;BME280;6600;51.362;6.686;2023-06-24T02:44:52;101948.34;;;24.02;73.16
13068;BME280;6600;51.362;6.686;2023-06-24T02:47:19;101935.19;;;24.04;73.42
13068;BME280;6600;51.362;6.686;2023-06-24T02:49:46;101943.97;;;24.01;73.71
13068;BME280;6600;51.362;6.686;2023-06-24T02:52:15;101942.88;;;23.92;73.61
13068;BME280;6600;51.362;6.686;2023-06-24T02:54:41;101942.88;;;23.92;73.85
13068;BME280;6600;51.362;6.686;2023-06-24T02:57:08;101941.22;;;23.91;73.81
13068;BME280;6600;51.362;6.686;2023-06-24T02:59:33;101945.06;;;23.80;73.69
13068;BME280;6600;51.362;6.686;2023-06-24T03:01:59;101941.25;;;23.86;73.86
13068;BME280;6600;51.362;6.686;2023-06-24T03:04:26;101951.09;;;23.87;73.54
13068;BME280;6600;51.362;6.686;2023-06-24T03:06:51;101946.19;;;23.79;73.61
13068;BME280;6600;51.362;6.686;2023-06-24T03:09:18;101946.72;;;23.81;73.63
13068;BME280;6600;51.362;6.686;2023-06-24T03:11:44;101948.88;;;23.69;74.13
13068;BME280;6600;51.362;6.686;2023-06-24T03:14:10;101949.44;;;23.65;74.20
13068;BME280;6600;51.362;6.686;2023-06-24T03:16:35;101946.97;;;23.59;74.27
13068;BME280;6600;51.362;6.686;2023-06-24T03:19:01;101953.56;;;23.68;74.35
13068;BME280;6600;51.362;6.686;2023-06-24T03:21:26;101954.91;;;23.65;74.53
13068;BME280;6600;51.362;6.686;2023-06-24T03:23:56;101950.53;;;23.64;74.44
13068;BME280;6600;51.362;6.686;2023-06-24T03:26:25;101947.78;;;23.80;73.99
13068;BME280;6600;51.362;6.686;2023-06-24T03:28:55;101946.72;;;23.81;73.88
13068;BME280;6600;51.362;6.686;2023-06-24T03:31:21;101952.72;;;23.78;73.87
13068;BME280;6600;51.362;6.686;2023-06-24T03:33:48;101963.66;;;23.73;74.09
13068;BME280;6600;51.362;6.686;2023-06-24T03:36:14;101962.03;;;23.72;74.21
13068;BME280;6600;51.362;6.686;2023-06-24T03:38:39;101959.31;;;23.72;74.29
13068;BME280;6600;51.362;6.686;2023-06-24T03:41:04;101968.06;;;23.84;73.77
13068;BME280;6600;51.362;6.686;2023-06-24T03:43:29;101966.97;;;23.80;74.08
13068;BME280;6600;51.362;6.686;2023-06-24T03:45:55;101968.34;;;23.87;73.69
13068;BME280;6600;51.362;6.686;2023-06-24T03:48:20;101969.72;;;23.85;73.91
13068;BME280;6600;51.362;6.686;2023-06-24T03:50:46;101968.06;;;23.84;73.96
13068;BME280;6600;51.362;6.686;2023-06-24T03:53:11;101974.09;;;23.81;74.19
13068;BME280;6600;51.362;6.686;2023-06-24T03:55:36;101968.88;;;23.74;74.39
13068;BME280;6600;51.362;6.686;2023-06-24T03:58:02;101972.97;;;23.77;74.36
13068;BME280;6600;51.362;6.686;2023-06-24T04:00:27;101985.56;;;23.83;74.20
13068;BME280;6600;51.362;6.686;2023-06-24T04:02:52;101991.59;;;23.90;74.04
13068;BME280;6600;51.362;6.686;2023-06-24T04:05:19;101993.25;;;23.96;74.35
13068;BME280;6600;51.362;6.686;2023-06-24T04:07:45;101999.53;;;23.96;74.33
13068;BME280;6600;51.362;6.686;2023-06-24T04:10:16;101994.88;;;23.97;74.63
13068;BME280;6600;51.362;6.686;2023-06-24T04:12:42;101990.78;;;24.04;74.35
13068;BME280;6600;51.362;6.686;2023-06-24T04:15:08;101990.50;;;24.11;74.94
13068;BME280;6600;51.362;6.686;2023-06-24T04:17:33;101993.25;;;24.06;74.97
13068;BME280;6600;51.362;6.686;2023-06-24T04:19:58;101990.50;;;24.11;75.30
13068;BME280;6600;51.362;6.686;2023-06-24T04:22:25;101992.72;;;24.29;74.92
13068;BME280;6600;51.362;6.686;2023-06-24T04:24:50;101981.75;;;24.24;74.89
13068;BME280;6600;51.362;6.686;2023-06-24T04:27:16;101985.28;;;24.35;75.28
13068;BME280;6600;51.362;6.686;2023-06-24T04:29:41;101980.06;;;24.48;73.88
13068;BME280;6600;51.362;6.686;2023-06-24T04:32:07;101975.13;;;24.50;74.43
13068;BME280;6600;51.362;6.686;2023-06-24T04:34:32;101981.72;;;24.39;74.58
13068;BME280;6600;51.362;6.686;2023-06-24T04:36:58;101982.78;;;24.48;74.39
13068;BME280;6600;51.362;6.686;2023-06-24T04:39:23;101986.13;;;24.35;74.84
13068;BME280;6600;51.362;6.686;2023-06-24T04:41:49;101983.06;;;24.57;74.29
13068;BME280;6600;51.362;6.686;2023-06-24T04:44:14;101978.94;;;24.64;74.49
13068;BME280;6600;51.362;6.686;2023-06-24T04:46:39;101983.28;;;24.65;74.89
13068;BME280;6600;51.362;6.686;2023-06-24T04:49:06;101982.72;;;24.79;74.66
13068;BME280;6600;51.362;6.686;2023-06-24T04:51:31;101978.84;;;24.95;73.98
13068;BME280;6600;51.362;6.686;2023-06-24T04:53:57;101983.91;;;25.22;73.79
13068;BME280;6600;51.362;6.686;2023-06-24T04:56:22;101986.72;;;25.17;74.13
13068;BME280;6600;51.362;6.686;2023-06-24T04:58:47;101987.88;;;25.49;73.06
13068;BME280;6600;51.362;6.686;2023-06-24T05:01:13;101987.75;;;25.75;72.30
13068;BME280;6600;51.362;6.686;2023-06-24T05:03:39;101989.25;;;25.91;72.04
13068;BME280;6600;51.362;6.686;2023-06-24T05:06:04;101998.38;;;26.15;71.01
13068;BME280;6600;51.362;6.686;2023-06-24T05:08:29;101994.03;;;26.09;70.62
13068;BME280;6600;51.362;6.686;2023-06-24T05:10:55;101990.16;;;26.10;70.52
13068;BME280;6600;51.362;6.686;2023-06-24T05:13:20;101984.53;;;26.30;70.47
13068;BME280;6600;51.362;6.686;2023-06-24T05:15:45;101988.97;;;26.26;70.66
13068;BME280;6600;51.362;6.686;2023-06-24T05:18:11;101987.22;;;26.59;69.37
13068;BME280;6600;51.362;6.686;2023-06-24T05:20:36;101995.00;;;26.76;69.67
13068;BME280;6600;51.362;6.686;2023-06-24T05:23:02;101989.13;;;26.63;69.62
13068;BME280;6600;51.362;6.686;2023-06-24T05:25:27;101994.63;;;26.63;69.50
13068;BME280;6600;51.362;6.686;2023-06-24T05:27:52;101996.31;;;26.59;69.81
13068;BME280;6600;51.362;6.686;2023-06-24T05:30:17;101991.75;;;26.74;69.60
13068;BME280;6600;51.362;6.686;2023-06-24T05:32:43;101990.06;;;26.78;69.80
13068;BME280;6600;51.362;6.686;2023-06-24T05:35:08;101987.81;;;26.80;70.08
13068;BME280;6600;51.362;6.686;2023-06-24T05:37:34;101990.88;;;27.02;68.99
13068;BME280;6600;51.362;6.686;2023-06-24T05:40:00;102000.13;;;26.87;69.32
13068;BME280;6600;51.362;6.686;2023-06-24T05:42:27;101999.66;;;27.04;68.41
13068;BME280;6600;51.362;6.686;2023-06-24T05:44:52;101996.56;;;26.87;68.64
13068;BME280;6600;51.362;6.686;2023-06-24T05:47:17;102003.72;;;27.30;67.59
13068;BME280;6600;51.362;6.686;2023-06-24T05:49:43;102004.91;;;27.00;67.90
13068;BME280;6600;51.362;6.686;2023-06-24T05:52:08;102002.72;;;27.21;67.38
13068;BME280;6600;51.362;6.686;2023-06-24T05:54:33;102004.56;;;27.07;68.60
13068;BME280;6600;51.362;6.686;2023-06-24T05:56:59;102006.75;;;27.29;68.10
13068;BME280;6600;51.362;6.686;2023-06-24T05:59:24;102013.28;;;27.14;67.53
13068;BME280;6600;51.362;6.686;2023-06-24T06:01:50;102010.53;;;27.14;68.34
13068;BME280;6600;51.362;6.686;2023-06-24T06:04:15;102005.38;;;27.07;68.18
13068;BME280;6600;51.362;6.686;2023-06-24T06:06:40;102006.84;;;27.42;67.89
13068;BME280;6600;51.362;6.686;2023-06-24T06:09:06;102017.25;;;27.83;66.74
13068;BME280;6600;51.362;6.686;2023-06-24T06:11:31;102007.97;;;27.79;66.75
13068;BME280;6600;51.362;6.686;2023-06-24T06:13:57;102010.78;;;27.92;65.49
13068;BME280;6600;51.362;6.686;2023-06-24T06:16:22;102003.91;;;27.57;66.70
13068;BME280;6600;51.362;6.686;2023-06-24T06:18:47;102018.28;;;27.87;66.91
13068;BME280;6600;51.362;6.686;2023-06-24T06:21:13;102015.47;;;27.92;66.50
13068;BME280;6600;51.362;6.686;2023-06-24T06:23:38;102019.06;;;27.74;67.00
13068;BME280;6600;51.362;6.686;2023-06-24T06:26:03;102020.06;;;28.15;66.56
13068;BME280;6600;51.362;6.686;2023-06-24T06:28:29;102025.81;;;28.32;65.81
13068;BME280;6600;51.362;6.686;2023-06-24T06:30:54;102023.09;;;28.46;65.32
13068;BME280;6600;51.362;6.686;2023-06-24T06:33:22;102022.56;;;28.30;65.84
13068;BME280;6600;51.362;6.686;2023-06-24T06:35:47;102031.44;;;28.87;65.17
13068;BME280;6600;51.362;6.686;2023-06-24T06:38:12;102019.75;;;28.63;63.70
13068;BME280;6600;51.362;6.686;2023-06-24T06:40:38;102025.66;;;28.56;64.35
13068;BME280;6600;51.362;6.686;2023-06-24T06:43:03;102026.97;;;28.58;64.43
13068;BME280;6600;51.362;6.686;2023-06-24T06:45:28;102037.19;;;28.44;64.22
13068;BME280;6600;51.362;6.686;2023-06-24T06:47:53;102024.00;;;28.41;64.63
13068;BME280;6600;51.362;6.686;2023-06-24T06:50:19;102033.56;;;28.17;64.58
13068;BME280;6600;51.362;6.686;2023-06-24T06:52:44;102037.88;;;28.36;65.46
13068;BME280;6600;51.362;6.686;2023-06-24T06:55:10;102035.97;;;28.50;65.33
13068;BME280;6600;51.362;6.686;2023-06-24T06:57:35;102041.81;;;28.63;64.63
13068;BME280;6600;51.362;6.686;2023-06-24T07:00:01;102043.94;;;28.66;65.20
13068;BME280;6600;51.362;6.686;2023-06-24T07:02:26;102045.00;;;28.70;64.62
13068;BME280;6600;51.362;6.686;2023-06-24T07:04:51;102042.88;;;28.67;64.69
13068;BME280;6600;51.362;6.686;2023-06-24T07:07:17;102038.38;;;28.71;64.44
13068;BME280;6600;51.362;6.686;2023-06-24T07:09:42;102042.63;;;28.63;64.06
13068;BME280;6600;51.362;6.686;2023-06-24T07:12:08;102047.50;;;28.52;64.27
13068;BME280;6600;51.362;6.686;2023-06-24T07:14:33;102050.03;;;28.68;64.30
13068;BME280;6600;51.362;6.686;2023-06-24T07:16:59;102047.97;;;28.87;63.17
13068;BME280;6600;51.362;6.686;2023-06-24T07:19:24;102052.28;;;28.93;62.95
13068;BME280;6600;51.362;6.686;2023-06-24T07:21:51;102044.50;;;29.36;61.27
13068;BME280;6600;51.362;6.686;2023-06-24T07:24:16;102055.88;;;29.70;61.06
13068;BME280;6600;51.362;6.686;2023-06-24T07:26:42;102056.44;;;29.81;60.24
13068;BME280;6600;51.362;6.686;2023-06-24T07:29:08;102050.22;;;29.89;54.42
13068;BME280;6600;51.362;6.686;2023-06-24T07:31:34;102055.50;;;29.99;52.36
13068;BME280;6600;51.362;6.686;2023-06-24T07:34:00;102058.75;;;30.23;53.11
13068;BME280;6600;51.362;6.686;2023-06-24T07:36:26;102057.00;;;30.05;50.46
13068;BME280;6600;51.362;6.686;2023-06-24T07:38:51;102049.38;;;30.11;51.63
13068;BME280;6600;51.362;6.686;2023-06-24T07:41:16;102049.44;;;30.41;52.21
13068;BME280;6600;51.362;6.686;2023-06-24T07:43:42;102057.09;;;30.44;50.64
13068;BME280;6600;51.362;6.686;2023-06-24T07:46:07;102060.25;;;30.51;49.90
13068;BME280;6600;51.362;6.686;2023-06-24T07:48:32;102061.84;;;30.44;48.95
13068;BME280;6600;51.362;6.686;2023-06-24T07:50:58;102052.53;;;30.71;51.20
13068;BME280;6600;51.362;6.686;2023-06-24T07:53:23;102057.78;;;30.81;49.81
13068;BME280;6600;51.362;6.686;2023-06-24T07:55:49;102054.59;;;30.96;49.57
13068;BME280;6600;51.362;6.686;2023-06-24T07:58:14;102043.38;;;30.62;49.35
13068;BME280;6600;51.362;6.686;2023-06-24T08:00:39;102057.03;;;30.36;50.32
13068;BME280;6600;51.362;6.686;2023-06-24T08:03:05;102065.66;;;30.56;49.34
13068;BME280;6600;51.362;6.686;2023-06-24T08:05:30;102060.50;;;30.72;49.60
13068;BME280;6600;51.362;6.686;2023-06-24T08:07:55;102061.69;;;30.80;49.53
13068;BME280;6600;51.362;6.686;2023-06-24T08:10:21;102061.78;;;30.97;49.05
13068;BME280;6600;51.362;6.686;2023-06-24T08:12:46;102054.25;;;30.89;48.57
13068;BME280;6600;51.362;6.686;2023-06-24T08:15:12;102049.56;;;30.98;49.16
13068;BME280;6600;51.362;6.686;2023-06-24T08:17:38;102045.84;;;31.02;51.30
13068;BME280;6600;51.362;6.686;2023-06-24T08:20:04;102056.16;;;30.80;48.61
13068;BME280;6600;51.362;6.686;2023-06-24T08:22:29;102051.19;;;30.60;49.40
13068;BME280;6600;51.362;6.686;2023-06-24T08:24:55;102042.34;;;30.88;49.58
13068;BME280;6600;51.362;6.686;2023-06-24T08:30:42;102041.56;;;30.57;47.97
13068;BME280;6600;51.362;6.686;2023-06-24T08:33:07;102042.63;;;31.09;49.23
13068;BME280;6600;51.362;6.686;2023-06-24T08:35:32;102035.16;;;31.35;48.19
13068;BME280;6600;51.362;6.686;2023-06-24T08:37:57;102041.69;;;31.39;48.81
13068;BME280;6600;51.362;6.686;2023-06-24T08:40:23;102038.88;;;31.31;47.68
13068;BME280;6600;51.362;6.686;2023-06-24T08:42:48;102034.81;;;31.28;48.43
13068;BME280;6600;51.362;6.686;2023-06-24T08:45:13;102033.13;;;31.58;48.05
13068;BME280;6600;51.362;6.686;2023-06-24T08:51:02;102032.28;;;31.75;50.08
13068;BME280;6600;51.362;6.686;2023-06-24T08:53:28;102029.84;;;31.65;48.44
13068;BME280;6600;51.362;6.686;2023-06-24T08:55:54;102033.53;;;32.03;47.75
13068;BME280;6600;51.362;6.686;2023-06-24T08:58:21;102042.06;;;31.98;48.47
13068;BME280;6600;51.362;6.686;2023-06-24T09:00:47;102039.09;;;32.03;45.95
13068;BME280;6600;51.362;6.686;2023-06-24T09:03:12;102028.53;;;31.79;45.34
13068;BME280;6600;51.362;6.686;2023-06-24T09:05:37;102038.31;;;31.60;45.36
13068;BME280;6600;51.362;6.686;2023-06-24T09:08:03;102034.69;;;31.42;46.02
13068;BME280;6600;51.362;6.686;2023-06-24T09:10:33;102027.94;;;31.09;47.20
13068;BME280;6600;51.362;6.686;2023-06-24T09:13:05;102018.88;;;31.42;46.91
13068;BME280;6600;51.362;6.686;2023-06-24T09:15:32;102029.00;;;31.90;47.03
13068;BME280;6600;51.362;6.686;2023-06-24T09:17:58;102024.28;;;32.08;46.65
13068;BME280;6600;51.362;6.686;2023-06-24T09:20:28;102029.31;;;31.97;47.86
13068;BME280;6600;51.362;6.686;2023-06-24T09:23:13;102015.59;;;32.73;48.32
13068;BME280;6600;51.362;6.686;2023-06-24T09:25:38;102012.41;;;32.53;47.54
13068;BME280;6600;51.362;6.686;2023-06-24T09:28:04;102014.31;;;32.15;45.19
13068;BME280;6600;51.362;6.686;2023-06-24T09:30:29;102014.44;;;32.27;45.80
13068;BME280;6600;51.362;6.686;2023-06-24T09:32:55;102007.25;;;32.35;46.03
13068;BME280;6600;51.362;6.686;2023-06-24T09:35:24;102013.00;;;32.21;44.82
13068;BME280;6600;51.362;6.686;2023-06-24T09:37:54;102000.25;;;32.37;46.12
13068;BME280;6600;51.362;6.686;2023-06-24T09:40:23;101991.72;;;32.42;48.33
13068;BME280;6600;51.362;6.686;2023-06-24T09:42:56;102000.59;;;32.74;47.10
13068;BME280;6600;51.362;6.686;2023-06-24T09:45:26;102000.88;;;32.34;45.58
13068;BME280;6600;51.362;6.686;2023-06-24T09:47:53;101996.00;;;32.78;46.47
13068;BME280;6600;51.362;6.686;2023-06-24T09:50:19;101994.28;;;32.56;46.34
13068;BME280;6600;51.362;6.686;2023-06-24T09:52:45;101994.56;;;32.72;45.43
13068;BME280;6600;51.362;6.686;2023-06-24T09:55:16;101988.81;;;33.06;45.95
13068;BME280;6600;51.362;6.686;2023-06-24T09:57:45;101986.28;;;32.92;45.50
13068;BME280;6600;51.362;6.686;2023-06-24T10:00:16;101983.66;;;32.96;43.75
13068;BME280;6600;51.362;6.686;2023-06-24T10:02:44;101982.59;;;32.80;44.01
13068;BME280;6600;51.362;6.686;2023-06-24T10:05:11;101980.44;;;32.85;44.99
13068;BME280;6600;51.362;6.686;2023-06-24T10:07:38;101992.25;;;32.74;43.33
13068;BME280;6600;51.362;6.686;2023-06-24T10:10:04;101977.97;;;32.54;43.23
13068;BME280;6600;51.362;6.686;2023-06-24T10:12:30;101973.88;;;32.61;41.65
13068;BME280;6600;51.362;6.686;2023-06-24T10:14:57;101979.72;;;32.97;41.39
13068;BME280;6600;51.362;6.686;2023-06-24T10:17:23;101969.19;;;33.11;41.89
13068;BME280;6600;51.362;6.686;2023-06-24T10:19:51;101969.16;;;33.20;40.00
13068;BME280;6600;51.362;6.686;2023-06-24T10:22:21;101967.19;;;33.20;39.05
13068;BME280;6600;51.362;6.686;2023-06-24T10:24:47;101967.97;;;33.41;39.00
13068;BME280;6600;51.362;6.686;2023-06-24T10:29:48;101972.91;;;33.57;38.97
13068;BME280;6600;51.362;6.686;2023-06-24T10:32:13;101958.44;;;33.01;36.59
13068;BME280;6600;51.362;6.686;2023-06-24T10:34:46;101953.53;;;33.27;39.70
13068;BME280;6600;51.362;6.686;2023-06-24T10:37:22;101955.00;;;33.04;40.52
13068;BME280;6600;51.362;6.686;2023-06-24T10:39:56;101950.75;;;33.27;39.91
13068;BME280;6600;51.362;6.686;2023-06-24T10:47:39;101935.13;;;33.43;43.19
13068;BME280;6600;51.362;6.686;2023-06-24T10:50:06;101937.47;;;33.53;41.99
13068;BME280;6600;51.362;6.686;2023-06-24T10:52:32;101932.72;;;33.54;41.64
13068;BME280;6600;51.362;6.686;2023-06-24T10:54:58;101935.69;;;33.70;42.87
13068;BME280;6600;51.362;6.686;2023-06-24T10:57:25;101929.06;;;33.95;43.52
13068;BME280;6600;51.362;6.686;2023-06-24T10:59:52;101927.41;;;33.82;42.95
13068;BME280;6600;51.362;6.686;2023-06-24T11:02:26;101920.34;;;33.84;42.04
13068;BME280;6600;51.362;6.686;2023-06-24T11:04:53;101924.13;;;33.68;43.92
13068;BME280;6600;51.362;6.686;2023-06-24T11:07:23;101922.75;;;33.86;40.99
13068;BME280;6600;51.362;6.686;2023-06-24T11:09:55;101924.13;;;33.68;40.33
13068;BME280;6600;51.362;6.686;2023-06-24T11:12:30;101920.47;;;34.00;40.19
13068;BME280;6600;51.362;6.686;2023-06-24T11:14:57;101925.53;;;33.74;39.98
13068;BME280;6600;51.362;6.686;2023-06-24T11:17:23;101915.84;;;33.92;38.80
13068;BME280;6600;51.362;6.686;2023-06-24T11:19:49;101921.09;;;34.06;38.61
13068;BME280;6600;51.362;6.686;2023-06-24T11:22:15;101912.31;;;34.28;37.99
13068;BME280;6600;51.362;6.686;2023-06-24T11:24:40;101908.28;;;33.80;36.44
13068;BME280;6600;51.362;6.686;2023-06-24T11:27:07;101915.03;;;33.91;36.10
13068;BME280;6600;51.362;6.686;2023-06-24T11:29:33;101899.91;;;34.13;34.70
13068;BME280;6600;51.362;6.686;2023-06-24T11:32:01;101904.66;;;33.68;35.42
13068;BME280;6600;51.362;6.686;2023-06-24T11:34:26;101903.75;;;33.76;36.65
13068;BME280;6600;51.362;6.686;2023-06-24T11:36:52;101902.63;;;34.01;35.78
13068;BME280;6600;51.362;6.686;2023-06-24T11:39:24;101904.78;;;34.16;34.42
13068;BME280;6600;51.362;6.686;2023-06-24T11:41:50;101901.41;;;34.35;34.54
13068;BME280;6600;51.362;6.686;2023-06-24T11:44:20;101897.53;;;34.03;33.87
13068;BME280;6600;51.362;6.686;2023-06-24T11:46:45;101896.16;;;34.09;34.32
13068;BME280;6600;51.362;6.686;2023-06-24T11:49:11;101898.63;;;34.23;34.76
13068;BME280;6600;51.362;6.686;2023-06-24T11:51:45;101910.13;;;34.33;34.10
13068;BME280;6600;51.362;6.686;2023-06-24T11:54:12;101902.00;;;34.53;34.71
13068;BME280;6600;51.362;6.686;2023-06-24T11:56:42;101901.75;;;34.58;33.92
13068;BME280;6600;51.362;6.686;2023-06-24T12:01:44;101892.25;;;34.46;32.96
13068;BME280;6600;51.362;6.686;2023-06-24T12:04:11;101896.66;;;34.60;33.30
13068;BME280;6600;51.362;6.686;2023-06-24T12:06:39;101896.44;;;34.28;34.01
13068;BME280;6600;51.362;6.686;2023-06-24T12:09:04;101885.75;;;34.42;35.68
13068;BME280;6600;51.362;6.686;2023-06-24T12:11:29;101886.66;;;34.59;34.01
13068;BME280;6600;51.362;6.686;2023-06-24T12:13:54;101873.72;;;34.50;35.46
13068;BME280;6600;51.362;6.686;2023-06-24T12:16:20;101879.00;;;34.56;34.04
13068;BME280;6600;51.362;6.686;2023-06-24T12:18:45;101887.25;;;34.52;33.98
13068;BME280;6600;51.362;6.686;2023-06-24T12:21:11;101878.94;;;34.64;34.61
13068;BME280;6600;51.362;6.686;2023-06-24T12:23:36;101887.34;;;34.92;35.05
13068;BME280;6600;51.362;6.686;2023-06-24T12:26:01;101871.88;;;34.30;32.33
13068;BME280;6600;51.362;6.686;2023-06-24T12:28:27;101868.56;;;34.77;34.26
13068;BME280;6600;51.362;6.686;2023-06-24T12:30:52;101869.53;;;34.32;33.88
13068;BME280;6600;51.362;6.686;2023-06-24T12:33:17;101868.78;;;34.84;32.90
13068;BME280;6600;51.362;6.686;2023-06-24T12:35:46;101864.41;;;34.71;32.62
13068;BME280;6600;51.362;6.686;2023-06-24T12:38:11;101863.38;;;34.39;32.86
13068;BME280;6600;51.362;6.686;2023-06-24T12:40:36;101859.09;;;34.54;32.93
13068;BME280;6600;51.362;6.686;2023-06-24T12:43:02;101863.50;;;34.42;31.61
13068;BME280;6600;51.362;6.686;2023-06-24T12:45:29;101857.91;;;34.06;32.63
13068;BME280;6600;51.362;6.686;2023-06-24T12:47:54;101853.38;;;33.77;32.79
13068;BME280;6600;51.362;6.686;2023-06-24T12:50:20;101856.75;;;34.07;33.42
13068;BME280;6600;51.362;6.686;2023-06-24T12:52:45;101853.50;;;34.05;32.51
13068;BME280;6600;51.362;6.686;2023-06-24T12:55:11;101859.56;;;34.19;33.74
13068;BME280;6600;51.362;6.686;2023-06-24T12:57:37;101861.41;;;34.27;33.36
13068;BME280;6600;51.362;6.686;2023-06-24T13:00:03;101853.47;;;33.93;33.20
13068;BME280;6600;51.362;6.686;2023-06-24T13:02:32;101855.31;;;33.77;31.72
13068;BME280;6600;51.362;6.686;2023-06-24T13:04:57;101858.78;;;33.74;31.46
13068;BME280;6600;51.362;6.686;2023-06-24T13:07:23;101850.69;;;33.93;33.03
13068;BME280;6600;51.362;6.686;2023-06-24T13:09:49;101849.84;;;34.13;32.92
13068;BME280;6600;51.362;6.686;2023-06-24T13:12:14;101852.84;;;34.20;32.67
13068;BME280;6600;51.362;6.686;2023-06-24T13:14:39;101847.47;;;34.51;29.40
13068;BME280;6600;51.362;6.686;2023-06-24T13:17:05;101854.91;;;34.72;30.65
13068;BME280;6600;51.362;6.686;2023-06-24T13:19:31;101849.81;;;34.62;30.73
13068;BME280;6600;51.362;6.686;2023-06-24T13:21:58;101850.03;;;34.69;32.82